Time;durP1;ratioP1;P1;durP2;ratioP2;P2;SDS_P1;SDS_P2;PMS_P1;PMS_P2;Temp;Humidity;BMP_temperature;BMP_pressure;BME280_temperature;BME280_humidity;BME280_pressure;Samples;Min_cycle;Max_cycle;Signal;HPM_P1;HPM_P2
2023/07/16 00:00:28;;;;;;;;;;;;;;;31.06;nan;100715.44;5055142;28;20015;-84
2023/07/16 00:02:53;;;;;;;;;;;;;;;31.04;nan;100729.66;5055451;28;19970;-86
2023/07/16 00:05:19;;;;;;;;;;;;;;;31.04;nan;100707.53;5054714;28;20005;-85
2023/07/16 00:07:44;;;;;;;;;;;;;;;31.01;nan;100702.78;5054076;28;19921;-84
2023/07/16 00:10:09;;;;;;;;;;;;;;;30.97;nan;100677.88;5055294;28;19917;-85
2023/07/16 00:12:35;;;;;;;;;;;;;;;30.96;nan;100667.19;5051780;28;20689;-85
2023/07/16 00:15:00;;;;;;;;;;;;;;;30.93;nan;100670.75;5053611;28;20043;-85
2023/07/16 00:17:25;;;;;;;;;;;;;;;30.87;nan;100659.25;5056748;28;20383;-85
2023/07/16 00:19:51;;;;;;;;;;;;;;;30.82;nan;100673.44;5057177;28;20114;-85
2023/07/16 00:22:16;;;;;;;;;;;;;;;30.75;nan;100667.88;5056373;28;20377;-85
2023/07/16 00:24:41;;;;;;;;;;;;;;;30.71;nan;100660.75;5053150;28;20316;-85
2023/07/16 00:27:07;;;;;;;;;;;;;;;30.72;nan;100654.84;5055046;28;19924;-86
2023/07/16 00:29:32;;;;;;;;;;;;;;;30.69;nan;100636.22;5052142;28;19924;-85
2023/07/16 00:31:57;;;;;;;;;;;;;;;30.68;nan;100665.84;5055270;28;20023;-86
2023/07/16 00:34:22;;;;;;;;;;;;;;;30.64;nan;100658.72;5054217;28;20384;-86
2023/07/16 00:36:48;;;;;;;;;;;;;;;30.58;nan;100663.03;5052672;28;19925;-86
2023/07/16 00:39:13;;;;;;;;;;;;;;;30.55;nan;100672.09;5056668;28;21694;-86
2023/07/16 00:41:39;;;;;;;;;;;;;;;30.55;nan;100692.25;5053937;28;19930;-86
2023/07/16 00:44:05;;;;;;;;;;;;;;;30.56;nan;100690.25;5049237;28;20490;-86
2023/07/16 00:46:30;;;;;;;;;;;;;;;30.56;nan;100742.78;5052410;28;19924;-86
2023/07/16 00:48:56;;;;;;;;;;;;;;;30.47;nan;100722.97;5057024;28;19921;-85
2023/07/16 00:51:22;;;;;;;;;;;;;;;30.40;nan;100734.78;5059612;28;19974;-85
2023/07/16 00:53:48;;;;;;;;;;;;;;;30.38;nan;100737.13;5069981;28;19980;-83
2023/07/16 00:56:15;;;;;;;;;;;;;;;30.31;nan;100731.53;5056740;28;19967;-83
2023/07/16 00:58:41;;;;;;;;;;;;;;;30.26;nan;100729.91;5057382;28;19920;-83
2023/07/16 01:01:06;;;;;;;;;;;;;;;30.25;nan;100728.34;5054564;28;19927;-83
2023/07/16 01:03:31;;;;;;;;;;;;;;;30.22;nan;100712.53;5055698;28;19920;-83
2023/07/16 01:06:18;;;;;;;;;;;;;;;30.22;nan;100715.28;5059192;28;20002;-83
2023/07/16 01:08:57;;;;;;;;;;;;;;;30.17;nan;100707.34;5056977;28;19924;-83
2023/07/16 01:11:23;;;;;;;;;;;;;;;30.12;nan;100706.91;5051741;28;19923;-83
2023/07/16 01:13:48;;;;;;;;;;;;;;;30.10;nan;100714.78;5054467;28;19921;-83
2023/07/16 01:16:20;;;;;;;;;;;;;;;30.06;nan;100721.06;5053652;28;19924;-82
2023/07/16 01:18:46;;;;;;;;;;;;;;;30.01;nan;100723.38;5055492;28;20336;-83
2023/07/16 01:21:11;;;;;;;;;;;;;;;30.00;nan;100725.34;5062614;28;19917;-83
2023/07/16 01:23:39;;;;;;;;;;;;;;;29.98;nan;100733.22;5056523;28;19921;-83
2023/07/16 01:26:07;;;;;;;;;;;;;;;29.95;nan;100744.19;5057530;28;19916;-83
2023/07/16 01:28:41;;;;;;;;;;;;;;;29.93;nan;100741.03;5054878;28;19942;-83
2023/07/16 01:31:08;;;;;;;;;;;;;;;29.90;nan;100744.56;5057571;28;20416;-83
2023/07/16 01:33:34;;;;;;;;;;;;;;;29.86;nan;100749.25;5055783;28;19928;-83
2023/07/16 01:35:59;;;;;;;;;;;;;;;29.82;nan;100756.72;5055360;28;19970;-84
2023/07/16 01:38:25;;;;;;;;;;;;;;;29.81;nan;100771.69;5055303;28;20395;-83
2023/07/16 01:40:50;;;;;;;;;;;;;;;29.79;nan;100766.53;5055362;28;19958;-83
2023/07/16 01:43:16;;;;;;;;;;;;;;;29.78;nan;100784.25;5053340;28;19920;-83
2023/07/16 01:45:41;;;;;;;;;;;;;;;29.75;nan;100794.09;5054163;28;20304;-85
2023/07/16 01:48:26;;;;;;;;;;;;;;;29.70;nan;100797.22;5051442;28;19973;-85
2023/07/16 01:50:52;;;;;;;;;;;;;;;29.62;nan;100811.28;5040985;28;19921;-86
2023/07/16 01:53:17;;;;;;;;;;;;;;;29.51;nan;100819.44;5056715;28;19951;-86
2023/07/16 01:55:42;;;;;;;;;;;;;;;29.43;nan;100826.00;5055277;28;20416;-86
2023/07/16 01:58:09;;;;;;;;;;;;;;;29.36;nan;100836.97;5055054;28;20500;-85
2023/07/16 02:00:35;;;;;;;;;;;;;;;29.34;nan;100842.06;5053787;28;20007;-85
2023/07/16 02:03:00;;;;;;;;;;;;;;;29.35;nan;100857.44;5058487;28;20011;-86
2023/07/16 02:05:25;;;;;;;;;;;;;;;29.33;nan;100859.78;5055691;28;19917;-86
2023/07/16 02:07:50;;;;;;;;;;;;;;;29.28;nan;100871.16;5060343;28;20016;-86
2023/07/16 02:10:16;;;;;;;;;;;;;;;29.21;nan;100907.69;5054130;28;20508;-85
2023/07/16 02:12:41;;;;;;;;;;;;;;;29.11;nan;100903.63;5057912;28;19924;-85
2023/07/16 02:15:06;;;;;;;;;;;;;;;29.04;nan;100900.72;5063150;28;19959;-84
2023/07/16 02:17:32;;;;;;;;;;;;;;;29.02;nan;100894.78;5054846;28;20016;-87
2023/07/16 02:19:57;;;;;;;;;;;;;;;29.00;nan;100901.84;5052912;28;20177;-85
2023/07/16 02:22:22;;;;;;;;;;;;;;;28.92;nan;100902.91;5058644;28;20000;-86
2023/07/16 02:24:48;;;;;;;;;;;;;;;28.88;nan;100922.91;5053080;28;19927;-88
2023/07/16 02:27:13;;;;;;;;;;;;;;;28.91;nan;100926.94;5050671;28;19928;-86
2023/07/16 02:29:38;;;;;;;;;;;;;;;28.93;nan;100932.88;5055394;28;19924;-87
2023/07/16 02:32:04;;;;;;;;;;;;;;;28.98;nan;100942.78;5049508;28;19978;-85
2023/07/16 02:34:29;;;;;;;;;;;;;;;28.99;nan;100938.88;5050355;28;20032;-87
2023/07/16 02:36:54;;;;;;;;;;;;;;;29.01;nan;100956.63;5050614;28;20315;-86
2023/07/16 02:39:20;;;;;;;;;;;;;;;28.96;nan;100961.69;5053476;28;20428;-87
2023/07/16 02:41:45;;;;;;;;;;;;;;;28.95;nan;100954.56;5056688;28;19924;-86
2023/07/16 02:44:10;;;;;;;;;;;;;;;28.93;nan;100946.66;5056062;28;20440;-85
2023/07/16 02:46:36;;;;;;;;;;;;;;;28.96;nan;100951.44;5055469;28;19928;-86
2023/07/16 02:49:02;;;;;;;;;;;;;;;28.93;nan;100968.72;5056100;28;19920;-87
2023/07/16 02:51:27;;;;;;;;;;;;;;;28.92;nan;100967.13;5054900;28;19951;-87
2023/07/16 02:53:53;;;;;;;;;;;;;;;28.89;nan;100970.59;5056107;28;20641;-85
2023/07/16 02:56:18;;;;;;;;;;;;;;;28.88;nan;100967.03;5053967;28;20198;-85
2023/07/16 02:58:44;;;;;;;;;;;;;;;28.94;nan;100967.56;5055383;28;20085;-85
2023/07/16 03:01:09;;;;;;;;;;;;;;;28.99;nan;100970.00;5054566;28;19974;-86
2023/07/16 03:03:35;;;;;;;;;;;;;;;28.99;nan;100967.25;5060175;28;20284;-84
2023/07/16 03:06:00;;;;;;;;;;;;;;;28.98;nan;100987.72;5054858;28;19972;-86
2023/07/16 03:08:29;;;;;;;;;;;;;;;29.03;nan;100975.56;5055573;28;19928;-84
2023/07/16 03:10:55;;;;;;;;;;;;;;;29.06;nan;100972.06;5052428;28;19920;-84
2023/07/16 03:13:20;;;;;;;;;;;;;;;29.08;nan;100987.09;5051373;28;19994;-85
2023/07/16 03:15:45;;;;;;;;;;;;;;;29.07;nan;100981.94;5051552;28;19916;-82
2023/07/16 03:18:11;;;;;;;;;;;;;;;29.02;nan;100988.56;5055107;28;19920;-83
2023/07/16 03:20:36;;;;;;;;;;;;;;;29.04;nan;101000.03;5051242;28;19945;-83
2023/07/16 03:23:02;;;;;;;;;;;;;;;29.01;nan;101003.53;5053258;28;19928;-82
2023/07/16 03:25:27;;;;;;;;;;;;;;;28.97;nan;101013.72;5057312;28;19925;-82
2023/07/16 03:27:52;;;;;;;;;;;;;;;28.98;nan;101007.03;5051120;28;19921;-82
2023/07/16 03:30:18;;;;;;;;;;;;;;;29.01;nan;101013.78;5057020;28;19920;-82
2023/07/16 03:32:43;;;;;;;;;;;;;;;29.04;nan;101013.03;5053221;28;20079;-82
2023/07/16 03:35:08;;;;;;;;;;;;;;;29.06;nan;101018.97;5055328;28;19998;-82
2023/07/16 03:37:33;;;;;;;;;;;;;;;29.09;nan;101019.06;5055323;28;19928;-82
2023/07/16 03:40:11;;;;;;;;;;;;;;;29.13;nan;101011.63;5051536;28;20030;-82
2023/07/16 03:42:37;;;;;;;;;;;;;;;29.12;nan;101014.78;5045954;28;19931;-82
2023/07/16 03:45:02;;;;;;;;;;;;;;;29.13;nan;101019.91;5057143;28;20552;-82
2023/07/16 03:47:27;;;;;;;;;;;;;;;29.07;nan;101002.06;5053362;28;20005;-81
2023/07/16 03:49:53;;;;;;;;;;;;;;;29.04;nan;101004.75;5056388;28;19924;-81
2023/07/16 03:52:18;;;;;;;;;;;;;;;29.08;nan;101003.66;5057825;28;20462;-82
2023/07/16 03:54:43;;;;;;;;;;;;;;;29.13;nan;100997.84;5061163;28;19920;-81
2023/07/16 03:57:08;;;;;;;;;;;;;;;29.15;nan;100969.88;5054601;28;19921;-82
2023/07/16 03:59:34;;;;;;;;;;;;;;;29.15;nan;100975.41;5058243;28;20362;-83
2023/07/16 04:01:59;;;;;;;;;;;;;;;29.12;nan;100976.16;5056739;28;20379;-83
2023/07/16 04:04:24;;;;;;;;;;;;;;;29.13;nan;100973.00;5057012;28;20432;-82
2023/07/16 04:06:50;;;;;;;;;;;;;;;29.12;nan;100956.84;5060153;28;19974;-82
2023/07/16 04:09:15;;;;;;;;;;;;;;;29.15;nan;100965.16;5059105;28;19996;-83
2023/07/16 04:11:41;;;;;;;;;;;;;;;29.17;nan;100992.38;5054091;28;19920;-83
2023/07/16 04:14:07;;;;;;;;;;;;;;;29.16;nan;100997.09;5056970;28;19917;-83
2023/07/16 04:16:32;;;;;;;;;;;;;;;29.19;nan;101023.94;5055609;28;19923;-83
2023/07/16 04:18:57;;;;;;;;;;;;;;;29.16;nan;101021.94;5055290;28;20320;-83
2023/07/16 04:21:22;;;;;;;;;;;;;;;29.14;nan;101017.94;5055491;28;19921;-83
2023/07/16 04:23:48;;;;;;;;;;;;;;;29.11;nan;100997.41;5055712;28;19920;-83
2023/07/16 04:26:13;;;;;;;;;;;;;;;29.11;nan;100980.88;5060474;28;20407;-83
2023/07/16 04:28:39;;;;;;;;;;;;;;;29.11;nan;100969.84;5052668;28;19924;-83
2023/07/16 04:31:04;;;;;;;;;;;;;;;29.09;nan;100972.16;5057976;28;19956;-83
2023/07/16 04:33:29;;;;;;;;;;;;;;;29.06;nan;100978.41;5058304;28;20058;-83
2023/07/16 04:35:55;;;;;;;;;;;;;;;29.06;nan;100963.81;5060304;28;19924;-83
2023/07/16 04:38:20;;;;;;;;;;;;;;;29.04;nan;100961.41;5058687;28;20024;-83
2023/07/16 04:40:45;;;;;;;;;;;;;;;29.03;nan;100968.09;5055574;28;19920;-83
2023/07/16 04:43:11;;;;;;;;;;;;;;;29.00;nan;100977.13;5057056;28;20493;-83
2023/07/16 04:45:36;;;;;;;;;;;;;;;28.95;nan;101009.72;5058082;28;19921;-83
2023/07/16 04:48:01;;;;;;;;;;;;;;;28.83;nan;101024.44;5058522;28;19924;-82
2023/07/16 04:50:26;;;;;;;;;;;;;;;28.72;nan;101038.00;5054650;28;19960;-83
2023/07/16 04:52:52;;;;;;;;;;;;;;;28.62;nan;101063.44;5059214;28;19931;-84
2023/07/16 04:55:17;;;;;;;;;;;;;;;28.55;nan;101047.56;5056531;28;20019;-83
2023/07/16 04:57:43;;;;;;;;;;;;;;;28.58;nan;101070.84;5057024;28;19921;-82
2023/07/16 05:00:08;;;;;;;;;;;;;;;28.64;nan;101076.84;5057396;28;19951;-82
2023/07/16 05:02:33;;;;;;;;;;;;;;;28.64;nan;101077.63;5054351;28;19916;-83
2023/07/16 05:04:59;;;;;;;;;;;;;;;28.61;nan;101077.56;5057445;28;20444;-82
2023/07/16 05:07:24;;;;;;;;;;;;;;;28.59;nan;101080.69;5056472;28;19921;-82
2023/07/16 05:09:49;;;;;;;;;;;;;;;28.61;nan;101083.09;5057144;28;19950;-83
2023/07/16 05:12:14;;;;;;;;;;;;;;;28.65;nan;101072.94;5060553;28;19928;-83
2023/07/16 05:14:46;;;;;;;;;;;;;;;28.67;nan;101060.38;5060425;28;19962;-82
2023/07/16 05:17:12;;;;;;;;;;;;;;;28.69;nan;101046.22;5062076;28;19920;-83
2023/07/16 05:19:37;;;;;;;;;;;;;;;28.68;nan;101050.13;5058073;28;19930;-83
2023/07/16 05:22:02;;;;;;;;;;;;;;;28.67;nan;101106.44;5060142;28;19966;-82
2023/07/16 05:24:28;;;;;;;;;;;;;;;28.65;nan;101100.50;5057235;28;19956;-82
2023/07/16 05:26:54;;;;;;;;;;;;;;;28.65;nan;101123.34;5058748;28;20383;-83
2023/07/16 05:29:19;;;;;;;;;;;;;;;28.67;nan;101114.72;5056395;28;19920;-82
2023/07/16 05:31:46;;;;;;;;;;;;;;;28.71;nan;101115.56;5057839;28;19921;-82
2023/07/16 05:34:11;;;;;;;;;;;;;;;28.69;nan;101138.00;5062285;28;19924;-83
2023/07/16 05:36:37;;;;;;;;;;;;;;;28.67;nan;101148.59;5058777;28;20169;-83
2023/07/16 05:39:02;;;;;;;;;;;;;;;28.61;nan;101147.28;5059208;28;20022;-82
2023/07/16 05:41:27;;;;;;;;;;;;;;;28.54;nan;101145.16;5056019;28;20017;-83
2023/07/16 05:43:53;;;;;;;;;;;;;;;28.50;nan;101149.81;5061379;28;19920;-82
2023/07/16 05:46:18;;;;;;;;;;;;;;;28.49;nan;101141.88;5065942;28;19920;-82
2023/07/16 05:48:43;;;;;;;;;;;;;;;28.51;nan;101134.84;5058009;28;19921;-82
2023/07/16 05:51:08;;;;;;;;;;;;;;;28.54;nan;101144.34;5055857;28;19928;-83
2023/07/16 05:53:34;;;;;;;;;;;;;;;28.61;nan;101160.28;5055695;28;19921;-83
2023/07/16 05:55:59;;;;;;;;;;;;;;;28.64;nan;101151.28;5058449;28;19932;-82
2023/07/16 05:58:24;;;;;;;;;;;;;;;28.69;nan;101139.97;5057497;28;19924;-82
2023/07/16 06:00:50;;;;;;;;;;;;;;;28.75;nan;101131.06;5056291;28;19920;-82
2023/07/16 06:03:16;;;;;;;;;;;;;;;28.84;nan;101147.38;5057918;28;19921;-84
2023/07/16 06:05:42;;;;;;;;;;;;;;;28.90;nan;101162.50;5058132;28;19920;-83
2023/07/16 06:08:07;;;;;;;;;;;;;;;28.96;nan;101146.47;5058239;28;19927;-82
2023/07/16 06:10:33;;;;;;;;;;;;;;;28.96;nan;101154.75;5059158;28;19928;-82
2023/07/16 06:12:59;;;;;;;;;;;;;;;28.98;nan;101163.47;5062042;28;19931;-81
2023/07/16 06:15:24;;;;;;;;;;;;;;;28.98;nan;101160.69;5058608;28;19955;-82
2023/07/16 06:17:49;;;;;;;;;;;;;;;28.96;nan;101171.28;5066469;28;19927;-82
2023/07/16 06:20:15;;;;;;;;;;;;;;;28.99;nan;101176.09;5063589;28;20013;-83
2023/07/16 06:22:40;;;;;;;;;;;;;;;29.00;nan;101161.94;5062523;28;19927;-82
2023/07/16 06:25:05;;;;;;;;;;;;;;;29.00;nan;101164.69;5057531;28;20536;-83
2023/07/16 06:27:31;;;;;;;;;;;;;;;29.05;nan;101163.59;5063194;28;19920;-82
2023/07/16 06:29:56;;;;;;;;;;;;;;;29.08;nan;101160.91;5058903;28;19921;-82
2023/07/16 06:32:22;;;;;;;;;;;;;;;29.10;nan;101150.31;5056630;28;19924;-82
2023/07/16 06:34:47;;;;;;;;;;;;;;;29.12;nan;101161.78;5057186;28;19932;-82
2023/07/16 06:37:12;;;;;;;;;;;;;;;29.16;nan;101157.13;5058344;28;19935;-82
2023/07/16 06:39:38;;;;;;;;;;;;;;;29.23;nan;101158.44;5060548;28;19967;-82
2023/07/16 06:42:03;;;;;;;;;;;;;;;29.28;nan;101158.94;5060231;28;19990;-83
2023/07/16 06:44:28;;;;;;;;;;;;;;;29.32;nan;101161.75;5060332;28;19959;-83
2023/07/16 06:46:54;;;;;;;;;;;;;;;29.41;nan;101159.56;5056983;28;19917;-83
2023/07/16 06:49:19;;;;;;;;;;;;;;;29.55;nan;101142.50;5055988;28;19920;-83
2023/07/16 06:51:44;;;;;;;;;;;;;;;29.73;nan;101141.63;5062078;28;19924;-83
2023/07/16 06:54:10;;;;;;;;;;;;;;;29.91;nan;101144.69;5059702;28;20331;-83
2023/07/16 06:56:35;;;;;;;;;;;;;;;29.96;nan;101136.09;5059208;28;19917;-83
2023/07/16 06:59:00;;;;;;;;;;;;;;;29.97;nan;101147.94;5057700;28;19916;-83
2023/07/16 07:01:27;;;;;;;;;;;;;;;30.01;nan;101154.34;5061185;28;19917;-83
2023/07/16 07:03:53;;;;;;;;;;;;;;;30.05;nan;101146.94;5061797;28;20068;-83
2023/07/16 07:06:18;;;;;;;;;;;;;;;30.13;nan;101143.09;5058709;28;20380;-84
2023/07/16 07:08:44;;;;;;;;;;;;;;;30.26;nan;101149.22;5058726;28;20020;-82
2023/07/16 07:11:09;;;;;;;;;;;;;;;30.29;nan;101140.16;5059790;28;19962;-83
2023/07/16 07:13:34;;;;;;;;;;;;;;;30.38;nan;101149.00;5057391;28;20297;-83
2023/07/16 07:15:59;;;;;;;;;;;;;;;30.43;nan;101153.41;5063065;28;19938;-82
2023/07/16 07:18:25;;;;;;;;;;;;;;;30.48;nan;101155.84;5056994;28;20376;-83
2023/07/16 07:20:51;;;;;;;;;;;;;;;30.53;nan;101147.25;5059162;28;19928;-82
2023/07/16 07:23:16;;;;;;;;;;;;;;;30.65;nan;101155.31;5062867;28;20376;-82
2023/07/16 07:25:42;;;;;;;;;;;;;;;30.83;nan;101159.13;5058422;28;19924;-82
2023/07/16 07:28:07;;;;;;;;;;;;;;;30.90;nan;101150.91;5061653;28;19926;-82
2023/07/16 07:30:32;;;;;;;;;;;;;;;31.00;nan;101160.50;5057482;28;19971;-81
2023/07/16 07:32:58;;;;;;;;;;;;;;;31.14;nan;101160.69;5058516;28;19925;-81
2023/07/16 07:35:23;;;;;;;;;;;;;;;31.27;nan;101164.03;5060314;28;19921;-82
2023/07/16 07:37:48;;;;;;;;;;;;;;;31.30;nan;101162.47;5053089;28;19924;-81
2023/07/16 07:40:14;;;;;;;;;;;;;;;31.33;nan;101165.25;5056965;28;20795;-81
2023/07/16 07:42:39;;;;;;;;;;;;;;;31.44;nan;101173.69;5060076;28;19917;-82
2023/07/16 07:45:04;;;;;;;;;;;;;;;31.52;nan;101178.13;5058924;28;19921;-81
2023/07/16 07:47:30;;;;;;;;;;;;;;;31.58;nan;101174.59;5065868;28;19923;-81
2023/07/16 07:49:55;;;;;;;;;;;;;;;31.62;nan;101173.88;5057920;28;20655;-82
2023/07/16 07:52:20;;;;;;;;;;;;;;;31.70;nan;101181.84;5054057;28;20565;-80
2023/07/16 07:54:46;;;;;;;;;;;;;;;31.81;nan;101177.25;5056802;28;19969;-81
2023/07/16 07:57:11;;;;;;;;;;;;;;;31.79;nan;101182.38;5060636;28;19921;-82
2023/07/16 07:59:37;;;;;;;;;;;;;;;31.77;nan;101181.94;5061460;28;19924;-81
2023/07/16 08:02:02;;;;;;;;;;;;;;;31.89;nan;101180.88;5057049;28;19924;-80
2023/07/16 08:04:27;;;;;;;;;;;;;;;32.07;nan;101187.34;5057455;28;19924;-82
2023/07/16 08:06:53;;;;;;;;;;;;;;;32.32;nan;101184.81;5058731;28;19921;-81
2023/07/16 08:09:19;;;;;;;;;;;;;;;32.49;nan;101186.06;5065805;28;20025;-82
2023/07/16 08:11:44;;;;;;;;;;;;;;;32.66;nan;101184.59;5058183;28;20423;-81
2023/07/16 08:14:09;;;;;;;;;;;;;;;32.83;nan;101185.88;5055909;28;20457;-81
2023/07/16 08:16:35;;;;;;;;;;;;;;;33.03;nan;101189.94;5059612;28;19927;-81
2023/07/16 08:19:01;;;;;;;;;;;;;;;33.12;nan;101200.69;5063636;28;20015;-82
2023/07/16 08:21:26;;;;;;;;;;;;;;;33.21;nan;101203.88;5056800;28;20043;-82
2023/07/16 08:23:52;;;;;;;;;;;;;;;33.07;nan;101206.63;5058009;28;19969;-82
2023/07/16 08:26:18;;;;;;;;;;;;;;;32.87;nan;101208.94;5056641;28;20827;-83
2023/07/16 08:28:43;;;;;;;;;;;;;;;32.69;nan;101212.38;5065695;28;19931;-82
2023/07/16 08:31:09;;;;;;;;;;;;;;;32.59;nan;101220.63;5056869;28;19916;-82
2023/07/16 08:33:35;;;;;;;;;;;;;;;32.58;nan;101217.06;5056862;28;20419;-82
2023/07/16 08:36:00;;;;;;;;;;;;;;;32.50;nan;101228.47;5068878;28;19920;-81
2023/07/16 08:38:26;;;;;;;;;;;;;;;32.41;nan;101226.84;5061366;28;19920;-81
2023/07/16 08:40:51;;;;;;;;;;;;;;;32.40;nan;101230.00;5061111;28;19924;-81
2023/07/16 08:43:17;;;;;;;;;;;;;;;32.36;nan;101235.53;5057749;28;20390;-81
2023/07/16 08:45:44;;;;;;;;;;;;;;;32.48;nan;101234.41;5061286;28;19923;-81
2023/07/16 08:48:10;;;;;;;;;;;;;;;32.65;nan;101236.50;5060600;28;20020;-81
2023/07/16 08:50:39;;;;;;;;;;;;;;;32.73;nan;101237.34;5058369;28;20431;-81
2023/07/16 08:53:05;;;;;;;;;;;;;;;32.71;nan;101234.97;5059903;28;20007;-80
2023/07/16 08:55:30;;;;;;;;;;;;;;;32.73;nan;101238.16;5058036;28;19971;-81
2023/07/16 08:57:57;;;;;;;;;;;;;;;32.79;nan;101241.34;5061356;28;20397;-81
2023/07/16 09:00:25;;;;;;;;;;;;;;;32.91;nan;101243.03;5060129;28;20388;-80
2023/07/16 09:02:51;;;;;;;;;;;;;;;33.02;nan;101241.09;5059481;28;19920;-82
2023/07/16 09:05:19;;;;;;;;;;;;;;;33.22;nan;101247.94;5059564;28;19924;-81
2023/07/16 09:07:44;;;;;;;;;;;;;;;33.37;nan;101248.00;5058323;28;19933;-81
2023/07/16 09:10:11;;;;;;;;;;;;;;;33.41;nan;101259.94;5055725;28;19931;-81
2023/07/16 09:12:41;;;;;;;;;;;;;;;33.40;nan;101255.56;5058328;28;19925;-80
2023/07/16 09:15:06;;;;;;;;;;;;;;;33.31;nan;101250.34;5058846;28;20007;-80
2023/07/16 09:17:32;;;;;;;;;;;;;;;33.42;nan;101255.97;5057180;28;20003;-81
2023/07/16 09:19:57;;;;;;;;;;;;;;;33.62;nan;101240.56;5058741;28;20661;-81
2023/07/16 09:22:22;;;;;;;;;;;;;;;33.75;nan;101247.31;5059522;28;20449;-81
2023/07/16 09:24:48;;;;;;;;;;;;;;;33.84;nan;101256.09;5071731;28;20026;-81
2023/07/16 09:27:13;;;;;;;;;;;;;;;33.93;nan;101253.75;5055201;28;20403;-80
2023/07/16 09:29:39;;;;;;;;;;;;;;;34.13;nan;101250.56;5060758;28;19924;-80
2023/07/16 09:32:07;;;;;;;;;;;;;;;34.40;nan;101254.53;5055887;28;19970;-81
2023/07/16 09:34:32;;;;;;;;;;;;;;;34.62;nan;101248.94;5055415;28;19999;-81
2023/07/16 09:36:58;;;;;;;;;;;;;;;34.73;nan;101233.03;5058454;28;19921;-81
2023/07/16 09:39:25;;;;;;;;;;;;;;;34.80;nan;101233.78;5057628;28;20463;-82
2023/07/16 09:41:50;;;;;;;;;;;;;;;34.93;nan;101242.53;5058293;28;19932;-83
2023/07/16 09:44:16;;;;;;;;;;;;;;;35.12;nan;101244.84;5060644;28;19924;-83
2023/07/16 09:46:42;;;;;;;;;;;;;;;35.34;nan;101241.94;5061121;28;20343;-82
2023/07/16 09:49:07;;;;;;;;;;;;;;;35.50;nan;101230.34;5056888;28;20287;-82
2023/07/16 09:51:35;;;;;;;;;;;;;;;35.65;nan;101243.00;5059216;28;20734;-83
2023/07/16 09:54:04;;;;;;;;;;;;;;;35.71;nan;101247.72;5060779;28;19933;-83
2023/07/16 09:56:35;;;;;;;;;;;;;;;35.79;nan;101250.47;5054336;28;19925;-82
2023/07/16 09:59:01;;;;;;;;;;;;;;;35.79;nan;101247.69;5057184;28;19940;-82
2023/07/16 10:01:26;;;;;;;;;;;;;;;35.84;nan;101241.72;5050910;28;19920;-82
2023/07/16 10:03:52;;;;;;;;;;;;;;;35.88;nan;101248.84;5056697;28;20015;-83
2023/07/16 10:06:17;;;;;;;;;;;;;;;35.85;nan;101251.66;5055591;28;20300;-83
2023/07/16 10:08:48;;;;;;;;;;;;;;;35.75;nan;101255.28;5056020;28;19954;-82
2023/07/16 10:11:17;;;;;;;;;;;;;;;35.78;nan;101251.69;5058168;28;19920;-82
2023/07/16 10:13:43;;;;;;;;;;;;;;;35.93;nan;101253.22;5061714;28;19925;-82
2023/07/16 10:16:19;;;;;;;;;;;;;;;35.96;nan;101250.38;5055277;28;19927;-83
2023/07/16 10:18:50;;;;;;;;;;;;;;;36.09;nan;101242.31;5057487;28;19928;-82
2023/07/16 10:21:22;;;;;;;;;;;;;;;36.33;nan;101250.91;5050624;28;19932;-82
2023/07/16 10:23:47;;;;;;;;;;;;;;;36.57;nan;101249.84;5054450;28;19917;-83
2023/07/16 10:26:14;;;;;;;;;;;;;;;36.70;nan;101245.34;5056602;28;20399;-82
2023/07/16 10:28:39;;;;;;;;;;;;;;;36.64;nan;101249.81;5054718;28;19947;-83
2023/07/16 10:31:07;;;;;;;;;;;;;;;36.54;nan;101253.47;5057420;28;19916;-83
2023/07/16 10:33:33;;;;;;;;;;;;;;;36.45;nan;101244.81;5060967;28;19931;-82
2023/07/16 10:36:01;;;;;;;;;;;;;;;36.28;nan;101247.34;5055161;28;19925;-83
2023/07/16 10:38:26;;;;;;;;;;;;;;;36.22;nan;101248.16;5055998;28;19924;-82
2023/07/16 10:40:52;;;;;;;;;;;;;;;36.38;nan;101244.88;5053072;28;19920;-83
2023/07/16 10:43:17;;;;;;;;;;;;;;;36.57;nan;101241.47;5060891;28;20152;-83
2023/07/16 10:45:45;;;;;;;;;;;;;;;36.73;nan;101246.50;5058396;28;19921;-83
2023/07/16 10:48:10;;;;;;;;;;;;;;;36.78;nan;101246.03;5055856;28;20390;-83
2023/07/16 10:50:35;;;;;;;;;;;;;;;36.62;nan;101254.97;5058936;28;19917;-83
2023/07/16 10:53:01;;;;;;;;;;;;;;;36.42;nan;101254.00;5057395;28;19931;-82
2023/07/16 10:55:27;;;;;;;;;;;;;;;36.39;nan;101252.03;5057660;28;19923;-83
2023/07/16 10:57:53;;;;;;;;;;;;;;;36.54;nan;101248.69;5059448;28;19926;-82
2023/07/16 11:00:19;;;;;;;;;;;;;;;36.59;nan;101251.03;5062901;28;19920;-82
2023/07/16 11:02:44;;;;;;;;;;;;;;;36.54;nan;101253.47;5063074;28;19917;-82
2023/07/16 11:05:13;;;;;;;;;;;;;;;36.39;nan;101257.63;5064583;28;19966;-83
2023/07/16 11:07:42;;;;;;;;;;;;;;;36.29;nan;101253.72;5065859;28;19962;-83
2023/07/16 11:10:07;;;;;;;;;;;;;;;36.37;nan;101254.44;5056357;28;19956;-82
2023/07/16 11:12:33;;;;;;;;;;;;;;;36.49;nan;101256.72;5060817;28;20023;-82
2023/07/16 11:14:58;;;;;;;;;;;;;;;36.72;nan;101261.66;5060003;28;20010;-81
2023/07/16 11:17:24;;;;;;;;;;;;;;;36.74;nan;101262.84;5055841;28;19920;-82
2023/07/16 11:19:50;;;;;;;;;;;;;;;36.69;nan;101254.13;5059738;28;20419;-82
2023/07/16 11:22:16;;;;;;;;;;;;;;;36.76;nan;101262.41;5058065;28;19920;-81
2023/07/16 11:24:44;;;;;;;;;;;;;;;36.78;nan;101265.59;5060000;28;19927;-81
2023/07/16 11:27:23;;;;;;;;;;;;;;;36.73;nan;101258.47;5059158;28;20015;-82
2023/07/16 11:29:49;;;;;;;;;;;;;;;36.62;nan;101264.16;5058257;28;20359;-81
2023/07/16 11:32:27;;;;;;;;;;;;;;;36.50;nan;101259.09;5063586;28;19928;-83
2023/07/16 11:34:53;;;;;;;;;;;;;;;36.38;nan;101253.25;5055704;28;19924;-83
2023/07/16 11:37:20;;;;;;;;;;;;;;;36.23;nan;101272.88;5056339;28;19990;-81
2023/07/16 11:39:46;;;;;;;;;;;;;;;36.00;nan;101264.28;5060878;28;20346;-81
2023/07/16 11:42:13;;;;;;;;;;;;;;;35.91;nan;101266.75;5063111;28;20180;-84
2023/07/16 11:44:38;;;;;;;;;;;;;;;36.00;nan;101264.28;5060928;28;20007;-80
2023/07/16 11:47:04;;;;;;;;;;;;;;;36.16;nan;101255.41;5058241;28;20003;-81
2023/07/16 11:49:29;;;;;;;;;;;;;;;36.25;nan;101275.25;5058122;28;19920;-82
2023/07/16 11:51:55;;;;;;;;;;;;;;;36.12;nan;101266.59;5059746;28;20622;-82
2023/07/16 11:54:20;;;;;;;;;;;;;;;36.21;nan;101278.06;5054966;28;19924;-82
2023/07/16 11:56:47;;;;;;;;;;;;;;;36.23;nan;101272.88;5057844;28;19927;-83
2023/07/16 11:59:12;;;;;;;;;;;;;;;36.19;nan;101269.31;5056489;28;20789;-82
2023/07/16 12:01:38;;;;;;;;;;;;;;;36.24;nan;101279.22;5053708;28;20023;-82
2023/07/16 12:04:03;;;;;;;;;;;;;;;36.24;nan;101260.50;5057152;28;19923;-82
2023/07/16 12:06:28;;;;;;;;;;;;;;;36.28;nan;101266.88;5057321;28;19920;-83
2023/07/16 12:08:55;;;;;;;;;;;;;;;36.51;nan;101268.28;5062244;28;19924;-83
2023/07/16 12:11:20;;;;;;;;;;;;;;;36.79;nan;101272.75;5059998;28;19927;-83
2023/07/16 12:13:45;;;;;;;;;;;;;;;36.94;nan;101279.78;5056539;28;19924;-81
2023/07/16 12:16:11;;;;;;;;;;;;;;;36.84;nan;101270.34;5058884;28;19920;-82
2023/07/16 12:18:36;;;;;;;;;;;;;;;36.97;nan;101270.59;5058670;28;20538;-85
2023/07/16 12:21:02;;;;;;;;;;;;;;;37.08;nan;101265.66;5058424;28;19925;-82
2023/07/16 12:23:27;;;;;;;;;;;;;;;37.12;nan;101271.22;5056140;28;19923;-82
2023/07/16 12:25:52;;;;;;;;;;;;;;;37.04;nan;101276.09;5059042;28;20326;-83
2023/07/16 12:28:18;;;;;;;;;;;;;;;37.10;nan;101279.22;5058656;28;19969;-83
2023/07/16 12:30:43;;;;;;;;;;;;;;;37.23;nan;101271.88;5058674;28;19942;-83
2023/07/16 12:33:08;;;;;;;;;;;;;;;37.20;nan;101269.94;5054978;28;20091;-84
2023/07/16 12:35:33;;;;;;;;;;;;;;;37.14;nan;101274.38;5054617;28;19921;-81
2023/07/16 12:37:59;;;;;;;;;;;;;;;37.12;nan;101274.78;5060120;28;20514;-81
2023/07/16 12:40:25;;;;;;;;;;;;;;;37.23;nan;101271.88;5063589;28;19920;-80
2023/07/16 12:42:50;;;;;;;;;;;;;;;37.20;nan;101281.09;5056678;28;19931;-83
2023/07/16 12:45:15;;;;;;;;;;;;;;;37.19;nan;101276.72;5063943;28;20477;-83
2023/07/16 12:47:41;;;;;;;;;;;;;;;37.31;nan;101272.59;5057514;28;19927;-83
2023/07/16 12:50:07;;;;;;;;;;;;;;;37.31;nan;101261.41;5062884;28;19924;-82